sensor_id;sensor_type;location;lat;lon;timestamp;pressure;altitude;pressure_sealevel;temperature;humidity
63339;BME280;47485;51.378;-1.342;2023-01-24T00:00:03;102424.10;;;0.61;29.61
63339;BME280;47485;51.378;-1.342;2023-01-24T00:02:30;102426.16;;;-0.09;29.39
63339;BME280;47485;51.378;-1.342;2023-01-24T00:04:57;102426.90;;;2.06;28.81
63339;BME280;47485;51.378;-1.342;2023-01-24T00:07:24;102425.34;;;-0.70;28.70
63339;BME280;47485;51.378;-1.342;2023-01-24T00:09:51;102420.55;;;0.73;28.34
63339;BME280;47485;51.378;-1.342;2023-01-24T00:12:18;102420.48;;;0.37;28.23
63339;BME280;47485;51.378;-1.342;2023-01-24T00:14:44;102421.51;;;2.71;27.71
63339;BME280;47485;51.378;-1.342;2023-01-24T00:17:11;102421.72;;;0.19;28.38
63339;BME280;47485;51.378;-1.342;2023-01-24T00:19:38;102422.30;;;1.67;27.60
63339;BME280;47485;51.378;-1.342;2023-01-24T00:22:06;102424.32;;;1.16;27.63
63339;BME280;47485;51.378;-1.342;2023-01-24T00:24:33;102424.54;;;0.78;27.09
63339;BME280;47485;51.378;-1.342;2023-01-24T00:27:00;102427.55;;;1.14;27.15
63339;BME280;47485;51.378;-1.342;2023-01-24T00:29:27;102430.04;;;1.33;27.33
63339;BME280;47485;51.378;-1.342;2023-01-24T00:31:54;102432.64;;;0.21;29.26
63339;BME280;47485;51.378;-1.342;2023-01-24T00:34:20;102434.80;;;0.79;29.82
63339;BME280;47485;51.378;-1.342;2023-01-24T00:36:47;102436.50;;;0.66;29.89
63339;BME280;47485;51.378;-1.342;2023-01-24T00:39:14;102432.00;;;1.30;29.80
63339;BME280;47485;51.378;-1.342;2023-01-24T00:41:40;102430.70;;;0.13;29.63
63339;BME280;47485;51.378;-1.342;2023-01-24T00:44:07;102431.63;;;0.60;29.05
63339;BME280;47485;51.378;-1.342;2023-01-24T00:46:34;102430.23;;;1.91;29.31
63339;BME280;47485;51.378;-1.342;2023-01-24T00:49:00;102424.85;;;0.64;29.98
63339;BME280;47485;51.378;-1.342;2023-01-24T00:51:27;102422.02;;;0.39;30.45
63339;BME280;47485;51.378;-1.342;2023-01-24T00:53:54;102424.52;;;-0.16;30.78
63339;BME280;47485;51.378;-1.342;2023-01-24T00:56:20;102423.61;;;0.08;30.36
63339;BME280;47485;51.378;-1.342;2023-01-24T00:58:47;102427.30;;;-1.82;31.25
63339;BME280;47485;51.378;-1.342;2023-01-24T01:01:14;102422.59;;;0.53;28.89
63339;BME280;47485;51.378;-1.342;2023-01-24T01:03:41;102421.97;;;1.47;28.38
63339;BME280;47485;51.378;-1.342;2023-01-24T01:06:11;102419.92;;;1.23;28.73
63339;BME280;47485;51.378;-1.342;2023-01-24T01:08:39;102423.22;;;0.63;29.22
63339;BME280;47485;51.378;-1.342;2023-01-24T01:11:07;102426.09;;;1.80;29.18
63339;BME280;47485;51.378;-1.342;2023-01-24T01:13:35;102422.47;;;1.55;29.26
63339;BME280;47485;51.378;-1.342;2023-01-24T01:16:02;102425.15;;;0.38;29.17
63339;BME280;47485;51.378;-1.342;2023-01-24T01:18:29;102422.64;;;1.19;29.52
63339;BME280;47485;51.378;-1.342;2023-01-24T01:20:56;102420.20;;;0.41;30.55
63339;BME280;47485;51.378;-1.342;2023-01-24T01:23:23;102425.83;;;0.52;30.53
63339;BME280;47485;51.378;-1.342;2023-01-24T01:25:50;102424.00;;;-0.63;31.16
63339;BME280;47485;51.378;-1.342;2023-01-24T01:28:17;102424.69;;;1.20;31.10
63339;BME280;47485;51.378;-1.342;2023-01-24T01:30:51;102424.37;;;0.23;30.57
63339;BME280;47485;51.378;-1.342;2023-01-24T01:33:17;102424.42;;;1.27;30.31
63339;BME280;47485;51.378;-1.342;2023-01-24T01:35:46;102422.10;;;-0.44;31.08
63339;BME280;47485;51.378;-1.342;2023-01-24T01:38:13;102428.13;;;-0.78;30.87
63339;BME280;47485;51.378;-1.342;2023-01-24T01:40:41;102429.76;;;-1.38;30.88
63339;BME280;47485;51.378;-1.342;2023-01-24T01:43:12;102428.07;;;0.27;31.12
63339;BME280;47485;51.378;-1.342;2023-01-24T01:45:42;102433.60;;;-0.45;32.14
63339;BME280;47485;51.378;-1.342;2023-01-24T01:48:17;102436.32;;;-1.09;31.95
63339;BME280;47485;51.378;-1.342;2023-01-24T01:50:50;102436.47;;;0.43;31.42
63339;BME280;47485;51.378;-1.342;2023-01-24T01:53:19;102441.61;;;-1.25;32.82
63339;BME280;47485;51.378;-1.342;2023-01-24T01:55:51;102449.62;;;-1.50;33.19
63339;BME280;47485;51.378;-1.342;2023-01-24T01:58:22;102451.24;;;-1.72;34.07
63339;BME280;47485;51.378;-1.342;2023-01-24T02:00:49;102451.94;;;-1.70;34.72
63339;BME280;47485;51.378;-1.342;2023-01-24T02:03:19;102456.05;;;-3.31;35.81
63339;BME280;47485;51.378;-1.342;2023-01-24T02:05:50;102454.48;;;-1.90;35.44
63339;BME280;47485;51.378;-1.342;2023-01-24T02:08:21;102450.11;;;-1.98;33.65
63339;BME280;47485;51.378;-1.342;2023-01-24T02:10:50;102455.13;;;-0.75;33.91
63339;BME280;47485;51.378;-1.342;2023-01-24T02:13:17;102452.48;;;-1.41;33.44
63339;BME280;47485;51.378;-1.342;2023-01-24T02:15:45;102448.00;;;-1.65;32.33
63339;BME280;47485;51.378;-1.342;2023-01-24T02:18:16;102447.64;;;-0.42;31.23
63339;BME280;47485;51.378;-1.342;2023-01-24T02:20:45;102452.02;;;0.37;30.01
63339;BME280;47485;51.378;-1.342;2023-01-24T02:23:22;102456.45;;;0.63;30.06
63339;BME280;47485;51.378;-1.342;2023-01-24T02:25:59;102456.11;;;-0.62;32.30
63339;BME280;47485;51.378;-1.342;2023-01-24T02:28:26;102458.19;;;-0.82;31.70
63339;BME280;47485;51.378;-1.342;2023-01-24T02:30:56;102454.79;;;1.03;31.13
63339;BME280;47485;51.378;-1.342;2023-01-24T02:33:23;102451.84;;;0.11;31.79
63339;BME280;47485;51.378;-1.342;2023-01-24T02:35:50;102455.00;;;-1.40;33.18
63339;BME280;47485;51.378;-1.342;2023-01-24T02:38:20;102455.16;;;-1.65;32.70
63339;BME280;47485;51.378;-1.342;2023-01-24T02:40:49;102457.01;;;-2.32;32.74
63339;BME280;47485;51.378;-1.342;2023-01-24T02:43:19;102451.91;;;-1.85;31.59
63339;BME280;47485;51.378;-1.342;2023-01-24T02:45:46;102451.28;;;1.02;30.01
63339;BME280;47485;51.378;-1.342;2023-01-24T02:48:13;102450.06;;;1.78;29.07
63339;BME280;47485;51.378;-1.342;2023-01-24T02:50:40;102451.01;;;1.55;29.52
63339;BME280;47485;51.378;-1.342;2023-01-24T02:53:08;102455.08;;;0.61;29.63
63339;BME280;47485;51.378;-1.342;2023-01-24T02:55:36;102456.71;;;-2.72;30.96
63339;BME280;47485;51.378;-1.342;2023-01-24T02:58:03;102455.96;;;-3.48;31.78
63339;BME280;47485;51.378;-1.342;2023-01-24T03:00:30;102451.44;;;2.16;27.87
63339;BME280;47485;51.378;-1.342;2023-01-24T03:02:56;102454.26;;;1.15;28.41
63339;BME280;47485;51.378;-1.342;2023-01-24T03:05:23;102458.69;;;0.54;28.72
63339;BME280;47485;51.378;-1.342;2023-01-24T03:07:50;102460.80;;;1.05;28.92
63339;BME280;47485;51.378;-1.342;2023-01-24T03:10:18;102459.84;;;0.42;30.70
63339;BME280;47485;51.378;-1.342;2023-01-24T03:12:45;102465.54;;;-0.84;32.28
63339;BME280;47485;51.378;-1.342;2023-01-24T03:15:13;102465.23;;;-1.92;33.69
63339;BME280;47485;51.378;-1.342;2023-01-24T03:17:39;102462.02;;;-1.56;32.90
63339;BME280;47485;51.378;-1.342;2023-01-24T03:20:08;102459.20;;;-1.29;32.16
63339;BME280;47485;51.378;-1.342;2023-01-24T03:22:34;102458.01;;;-1.01;32.63
63339;BME280;47485;51.378;-1.342;2023-01-24T03:25:01;102463.05;;;-1.62;33.73
63339;BME280;47485;51.378;-1.342;2023-01-24T03:27:28;102460.11;;;-1.56;33.21
63339;BME280;47485;51.378;-1.342;2023-01-24T03:29:55;102457.73;;;-0.35;31.04
63339;BME280;47485;51.378;-1.342;2023-01-24T03:32:22;102454.68;;;0.58;30.50
63339;BME280;47485;51.378;-1.342;2023-01-24T03:34:48;102451.16;;;0.97;30.63
63339;BME280;47485;51.378;-1.342;2023-01-24T03:37:17;102449.71;;;-0.13;31.37
63339;BME280;47485;51.378;-1.342;2023-01-24T03:39:44;102452.63;;;-0.69;32.41
63339;BME280;47485;51.378;-1.342;2023-01-24T03:42:11;102450.26;;;1.01;31.23
63339;BME280;47485;51.378;-1.342;2023-01-24T03:44:38;102448.48;;;0.42;30.72
63339;BME280;47485;51.378;-1.342;2023-01-24T03:47:06;102447.30;;;-0.42;30.29
63339;BME280;47485;51.378;-1.342;2023-01-24T03:49:32;102445.12;;;-0.28;30.41
63339;BME280;47485;51.378;-1.342;2023-01-24T03:51:59;102440.30;;;1.72;29.62
63339;BME280;47485;51.378;-1.342;2023-01-24T03:54:27;102441.99;;;0.49;30.43
63339;BME280;47485;51.378;-1.342;2023-01-24T03:56:53;102438.17;;;-0.15;30.41
63339;BME280;47485;51.378;-1.342;2023-01-24T03:59:20;102437.27;;;-0.72;30.73
63339;BME280;47485;51.378;-1.342;2023-01-24T04:01:47;102436.41;;;-0.16;30.22
63339;BME280;47485;51.378;-1.342;2023-01-24T04:04:14;102434.53;;;0.92;29.94
63339;BME280;47485;51.378;-1.342;2023-01-24T04:06:40;102433.51;;;1.26;29.38
63339;BME280;47485;51.378;-1.342;2023-01-24T04:09:08;102435.30;;;-1.56;31.05
63339;BME280;47485;51.378;-1.342;2023-01-24T04:11:34;102437.54;;;1.26;29.56
63339;BME280;47485;51.378;-1.342;2023-01-24T04:14:01;102434.78;;;1.91;28.93
63339;BME280;47485;51.378;-1.342;2023-01-24T04:16:28;102438.91;;;-0.05;30.17
63339;BME280;47485;51.378;-1.342;2023-01-24T04:18:55;102438.59;;;-0.91;29.95
63339;BME280;47485;51.378;-1.342;2023-01-24T04:21:21;102438.36;;;0.79;28.76
63339;BME280;47485;51.378;-1.342;2023-01-24T04:23:48;102436.83;;;-1.88;29.30
63339;BME280;47485;51.378;-1.342;2023-01-24T04:26:15;102426.70;;;3.87;26.55
63339;BME280;47485;51.378;-1.342;2023-01-24T04:28:42;102426.02;;;3.48;27.35
63339;BME280;47485;51.378;-1.342;2023-01-24T04:31:09;102427.60;;;0.05;28.56
63339;BME280;47485;51.378;-1.342;2023-01-24T04:33:36;102425.46;;;1.47;27.63
63339;BME280;47485;51.378;-1.342;2023-01-24T04:36:04;102428.53;;;2.42;27.60
63339;BME280;47485;51.378;-1.342;2023-01-24T04:38:31;102427.80;;;2.01;27.85
63339;BME280;47485;51.378;-1.342;2023-01-24T04:40:59;102429.83;;;1.70;28.24
63339;BME280;47485;51.378;-1.342;2023-01-24T04:43:26;102431.10;;;1.08;28.41
63339;BME280;47485;51.378;-1.342;2023-01-24T04:45:55;102429.37;;;1.57;27.47
63339;BME280;47485;51.378;-1.342;2023-01-24T04:48:22;102427.33;;;2.29;26.70
63339;BME280;47485;51.378;-1.342;2023-01-24T04:50:49;102426.23;;;3.45;26.65
63339;BME280;47485;51.378;-1.342;2023-01-24T04:53:16;102428.79;;;1.44;27.31
63339;BME280;47485;51.378;-1.342;2023-01-24T04:55:43;102433.06;;;1.24;28.05
63339;BME280;47485;51.378;-1.342;2023-01-24T04:58:10;102436.30;;;0.07;29.23
63339;BME280;47485;51.378;-1.342;2023-01-24T05:00:36;102436.28;;;0.65;27.64
63339;BME280;47485;51.378;-1.342;2023-01-24T05:03:03;102438.75;;;0.25;28.47
63339;BME280;47485;51.378;-1.342;2023-01-24T05:05:31;102438.94;;;1.34;26.97
63339;BME280;47485;51.378;-1.342;2023-01-24T05:07:58;102444.83;;;-2.94;30.16
63339;BME280;47485;51.378;-1.342;2023-01-24T05:10:24;102443.20;;;0.05;26.90
63339;BME280;47485;51.378;-1.342;2023-01-24T05:12:51;102441.01;;;0.57;27.16
63339;BME280;47485;51.378;-1.342;2023-01-24T05:15:18;102437.43;;;0.52;26.31
63339;BME280;47485;51.378;-1.342;2023-01-24T05:17:45;102437.19;;;2.51;26.43
63339;BME280;47485;51.378;-1.342;2023-01-24T05:20:12;102435.04;;;1.45;26.19
63339;BME280;47485;51.378;-1.342;2023-01-24T05:22:39;102434.64;;;2.65;26.07
63339;BME280;47485;51.378;-1.342;2023-01-24T05:25:07;102439.33;;;2.70;25.95
63339;BME280;47485;51.378;-1.342;2023-01-24T05:27:34;102438.93;;;0.85;26.56
63339;BME280;47485;51.378;-1.342;2023-01-24T05:30:01;102436.70;;;0.90;26.54
63339;BME280;47485;51.378;-1.342;2023-01-24T05:32:27;102431.90;;;2.10;25.95
63339;BME280;47485;51.378;-1.342;2023-01-24T05:34:54;102432.44;;;1.71;26.38
63339;BME280;47485;51.378;-1.342;2023-01-24T05:37:21;102429.42;;;-0.29;27.40
63339;BME280;47485;51.378;-1.342;2023-01-24T05:39:48;102429.67;;;1.91;26.28
63339;BME280;47485;51.378;-1.342;2023-01-24T05:42:15;102428.00;;;1.55;25.49
63339;BME280;47485;51.378;-1.342;2023-01-24T05:44:42;102428.64;;;2.37;25.53
63339;BME280;47485;51.378;-1.342;2023-01-24T05:47:09;102431.12;;;1.14;25.95
63339;BME280;47485;51.378;-1.342;2023-01-24T05:49:35;102431.11;;;2.31;26.19
63339;BME280;47485;51.378;-1.342;2023-01-24T05:52:02;102432.05;;;1.44;26.83
63339;BME280;47485;51.378;-1.342;2023-01-24T05:54:29;102430.10;;;0.83;27.34
63339;BME280;47485;51.378;-1.342;2023-01-24T05:56:56;102437.32;;;-1.65;28.97
63339;BME280;47485;51.378;-1.342;2023-01-24T05:59:22;102432.03;;;-0.71;27.11
63339;BME280;47485;51.378;-1.342;2023-01-24T06:01:49;102427.69;;;1.69;26.16
63339;BME280;47485;51.378;-1.342;2023-01-24T06:04:15;102428.43;;;1.26;26.85
63339;BME280;47485;51.378;-1.342;2023-01-24T06:06:42;102424.12;;;0.80;27.12
63339;BME280;47485;51.378;-1.342;2023-01-24T06:09:09;102424.91;;;0.24;27.62
63339;BME280;47485;51.378;-1.342;2023-01-24T06:11:35;102422.06;;;-0.12;28.22
63339;BME280;47485;51.378;-1.342;2023-01-24T06:14:02;102416.20;;;-0.17;27.03
63339;BME280;47485;51.378;-1.342;2023-01-24T06:16:28;102415.62;;;-0.10;27.50
63339;BME280;47485;51.378;-1.342;2023-01-24T06:18:56;102415.21;;;1.10;27.10
63339;BME280;47485;51.378;-1.342;2023-01-24T06:21:33;102417.73;;;0.08;27.48
63339;BME280;47485;51.378;-1.342;2023-01-24T06:24:04;102416.33;;;0.80;27.91
63339;BME280;47485;51.378;-1.342;2023-01-24T06:26:31;102417.48;;;0.17;28.41
63339;BME280;47485;51.378;-1.342;2023-01-24T06:28:59;102422.84;;;-1.33;28.11
63339;BME280;47485;51.378;-1.342;2023-01-24T06:31:34;102425.75;;;0.68;28.14
63339;BME280;47485;51.378;-1.342;2023-01-24T06:34:16;102422.85;;;0.84;28.84
63339;BME280;47485;51.378;-1.342;2023-01-24T06:36:53;102423.00;;;0.34;28.84
63339;BME280;47485;51.378;-1.342;2023-01-24T06:39:23;102421.86;;;-1.84;29.64
63339;BME280;47485;51.378;-1.342;2023-01-24T06:41:50;102427.63;;;-2.03;29.40
63339;BME280;47485;51.378;-1.342;2023-01-24T06:44:17;102429.69;;;-1.75;29.05
63339;BME280;47485;51.378;-1.342;2023-01-24T06:46:44;102431.88;;;0.03;27.95
63339;BME280;47485;51.378;-1.342;2023-01-24T06:49:10;102432.81;;;-0.03;27.29
63339;BME280;47485;51.378;-1.342;2023-01-24T06:51:37;102437.34;;;-0.91;28.31
63339;BME280;47485;51.378;-1.342;2023-01-24T06:54:04;102435.74;;;0.20;27.37
63339;BME280;47485;51.378;-1.342;2023-01-24T06:56:31;102439.14;;;0.51;27.08
63339;BME280;47485;51.378;-1.342;2023-01-24T06:58:57;102445.10;;;-0.99;28.66
63339;BME280;47485;51.378;-1.342;2023-01-24T07:01:24;102450.85;;;-2.21;30.06
63339;BME280;47485;51.378;-1.342;2023-01-24T07:03:51;102451.94;;;-0.32;28.01
63339;BME280;47485;51.378;-1.342;2023-01-24T07:06:18;102447.80;;;-1.50;29.01
63339;BME280;47485;51.378;-1.342;2023-01-24T07:08:45;102452.95;;;-3.29;29.62
63339;BME280;47485;51.378;-1.342;2023-01-24T07:11:12;102449.03;;;-1.97;27.71
63339;BME280;47485;51.378;-1.342;2023-01-24T07:13:38;102454.87;;;-1.09;27.59
63339;BME280;47485;51.378;-1.342;2023-01-24T07:16:07;102460.89;;;1.32;26.04
63339;BME280;47485;51.378;-1.342;2023-01-24T07:18:34;102462.07;;;0.11;26.01
63339;BME280;47485;51.378;-1.342;2023-01-24T07:21:05;102461.39;;;-3.12;28.43
63339;BME280;47485;51.378;-1.342;2023-01-24T07:23:33;102464.35;;;-1.56;27.19
63339;BME280;47485;51.378;-1.342;2023-01-24T07:26:01;102466.72;;;-0.40;27.14
63339;BME280;47485;51.378;-1.342;2023-01-24T07:28:28;102460.90;;;1.71;25.43
63339;BME280;47485;51.378;-1.342;2023-01-24T07:30:55;102463.33;;;1.12;25.86
63339;BME280;47485;51.378;-1.342;2023-01-24T07:33:22;102465.41;;;-0.98;27.19
63339;BME280;47485;51.378;-1.342;2023-01-24T07:35:49;102471.87;;;-2.21;28.64
63339;BME280;47485;51.378;-1.342;2023-01-24T07:38:16;102473.49;;;-1.79;27.72
63339;BME280;47485;51.378;-1.342;2023-01-24T07:40:43;102477.76;;;-1.94;28.63
63339;BME280;47485;51.378;-1.342;2023-01-24T07:43:09;102480.83;;;-1.50;27.68
63339;BME280;47485;51.378;-1.342;2023-01-24T07:45:36;102486.17;;;0.32;27.53
63339;BME280;47485;51.378;-1.342;2023-01-24T07:48:05;102486.04;;;0.97;25.58
63339;BME280;47485;51.378;-1.342;2023-01-24T07:50:33;102487.08;;;0.24;26.14
63339;BME280;47485;51.378;-1.342;2023-01-24T07:53:00;102492.46;;;0.47;25.65
63339;BME280;47485;51.378;-1.342;2023-01-24T07:55:27;102498.08;;;1.02;25.86
63339;BME280;47485;51.378;-1.342;2023-01-24T07:57:58;102500.58;;;0.06;26.41
63339;BME280;47485;51.378;-1.342;2023-01-24T08:00:26;102499.59;;;0.84;26.50
63339;BME280;47485;51.378;-1.342;2023-01-24T08:02:53;102502.11;;;0.45;27.14
63339;BME280;47485;51.378;-1.342;2023-01-24T08:05:21;102500.74;;;1.03;27.54
63339;BME280;47485;51.378;-1.342;2023-01-24T08:07:48;102497.72;;;-0.40;27.99
63339;BME280;47485;51.378;-1.342;2023-01-24T08:10:14;102499.56;;;-0.59;27.53
63339;BME280;47485;51.378;-1.342;2023-01-24T08:12:41;102501.73;;;-0.53;28.23
63339;BME280;47485;51.378;-1.342;2023-01-24T08:15:08;102506.80;;;-0.86;28.94
63339;BME280;47485;51.378;-1.342;2023-01-24T08:17:36;102510.84;;;-1.53;29.22
63339;BME280;47485;51.378;-1.342;2023-01-24T08:20:04;102518.42;;;-4.23;30.80
63339;BME280;47485;51.378;-1.342;2023-01-24T08:22:31;102514.23;;;-1.58;28.31
63339;BME280;47485;51.378;-1.342;2023-01-24T08:24:58;102513.52;;;-0.98;27.43
63339;BME280;47485;51.378;-1.342;2023-01-24T08:27:24;102516.39;;;-0.46;27.53
63339;BME280;47485;51.378;-1.342;2023-01-24T08:29:51;102518.69;;;-0.66;26.76
63339;BME280;47485;51.378;-1.342;2023-01-24T08:32:18;102516.11;;;-0.62;27.08
63339;BME280;47485;51.378;-1.342;2023-01-24T08:34:46;102523.92;;;-0.76;27.73
63339;BME280;47485;51.378;-1.342;2023-01-24T08:37:12;102524.88;;;-0.68;27.55
63339;BME280;47485;51.378;-1.342;2023-01-24T08:39:39;102528.30;;;1.35;26.64
63339;BME280;47485;51.378;-1.342;2023-01-24T08:42:08;102535.27;;;-0.56;28.59
63339;BME280;47485;51.378;-1.342;2023-01-24T08:44:35;102541.59;;;-3.14;29.61
63339;BME280;47485;51.378;-1.342;2023-01-24T08:47:03;102546.30;;;-4.68;30.60
63339;BME280;47485;51.378;-1.342;2023-01-24T08:49:29;102543.85;;;-2.39;30.00
63339;BME280;47485;51.378;-1.342;2023-01-24T08:51:56;102544.66;;;-2.36;28.46
63339;BME280;47485;51.378;-1.342;2023-01-24T08:54:23;102548.91;;;-0.32;27.57
63339;BME280;47485;51.378;-1.342;2023-01-24T08:56:50;102549.29;;;-2.97;28.57
63339;BME280;47485;51.378;-1.342;2023-01-24T08:59:17;102551.32;;;-0.34;27.82
63339;BME280;47485;51.378;-1.342;2023-01-24T09:01:43;102544.73;;;2.07;25.89
63339;BME280;47485;51.378;-1.342;2023-01-24T09:04:11;102547.24;;;-1.01;27.89
63339;BME280;47485;51.378;-1.342;2023-01-24T09:06:38;102544.72;;;0.70;26.14
63339;BME280;47485;51.378;-1.342;2023-01-24T09:09:06;102539.35;;;2.47;26.11
63339;BME280;47485;51.378;-1.342;2023-01-24T09:11:32;102538.44;;;1.51;26.99
63339;BME280;47485;51.378;-1.342;2023-01-24T09:13:59;102544.71;;;0.73;28.45
63339;BME280;47485;51.378;-1.342;2023-01-24T09:16:26;102540.30;;;0.15;28.86
63339;BME280;47485;51.378;-1.342;2023-01-24T09:18:53;102539.18;;;-1.77;28.96
63339;BME280;47485;51.378;-1.342;2023-01-24T09:21:20;102540.19;;;-0.77;29.16
63339;BME280;47485;51.378;-1.342;2023-01-24T09:23:47;102543.62;;;-0.16;28.71
63339;BME280;47485;51.378;-1.342;2023-01-24T09:26:14;102548.42;;;-2.71;30.05
63339;BME280;47485;51.378;-1.342;2023-01-24T09:28:41;102546.06;;;-0.43;28.93
63339;BME280;47485;51.378;-1.342;2023-01-24T09:31:09;102540.77;;;2.02;27.60
63339;BME280;47485;51.378;-1.342;2023-01-24T09:33:36;102542.32;;;1.64;27.95
63339;BME280;47485;51.378;-1.342;2023-01-24T09:36:03;102540.77;;;1.09;28.39
63339;BME280;47485;51.378;-1.342;2023-01-24T09:38:32;102542.63;;;-0.22;29.97
63339;BME280;47485;51.378;-1.342;2023-01-24T09:41:08;102544.00;;;0.38;30.07
63339;BME280;47485;51.378;-1.342;2023-01-24T09:43:47;102546.63;;;1.27;29.60
63339;BME280;47485;51.378;-1.342;2023-01-24T09:46:27;102544.03;;;0.18;29.44
63339;BME280;47485;51.378;-1.342;2023-01-24T09:49:00;102538.49;;;0.80;29.43
63339;BME280;47485;51.378;-1.342;2023-01-24T09:51:31;102542.69;;;0.13;29.96
63339;BME280;47485;51.378;-1.342;2023-01-24T09:54:03;102542.94;;;-2.72;32.92
63339;BME280;47485;51.378;-1.342;2023-01-24T09:56:34;102540.16;;;-1.27;31.21
63339;BME280;47485;51.378;-1.342;2023-01-24T09:59:13;102546.08;;;-3.95;33.07
63339;BME280;47485;51.378;-1.342;2023-01-24T10:01:43;102544.06;;;-2.68;33.23
63339;BME280;47485;51.378;-1.342;2023-01-24T10:04:14;102548.30;;;-4.09;34.88
63339;BME280;47485;51.378;-1.342;2023-01-24T10:07:01;102549.43;;;-5.83;35.79
63339;BME280;47485;51.378;-1.342;2023-01-24T10:09:35;102540.56;;;-2.74;32.69
63339;BME280;47485;51.378;-1.342;2023-01-24T10:12:13;102546.36;;;-6.41;37.35
63339;BME280;47485;51.378;-1.342;2023-01-24T10:14:53;102547.32;;;-4.85;36.47
63339;BME280;47485;51.378;-1.342;2023-01-24T10:18:09;102550.33;;;-5.58;36.92
63339;BME280;47485;51.378;-1.342;2023-01-24T10:20:48;102547.49;;;-3.68;33.86
63339;BME280;47485;51.378;-1.342;2023-01-24T10:23:18;102552.41;;;-4.80;35.79
63339;BME280;47485;51.378;-1.342;2023-01-24T10:25:54;102547.89;;;-3.49;34.86
63339;BME280;47485;51.378;-1.342;2023-01-24T10:28:24;102547.49;;;-4.36;35.39
63339;BME280;47485;51.378;-1.342;2023-01-24T10:30:56;102545.41;;;-4.19;35.44
63339;BME280;47485;51.378;-1.342;2023-01-24T10:33:29;102544.79;;;-4.20;35.86
63339;BME280;47485;51.378;-1.342;2023-01-24T10:36:01;102541.30;;;-5.55;38.43
63339;BME280;47485;51.378;-1.342;2023-01-24T10:38:31;102530.54;;;-0.11;33.72
63339;BME280;47485;51.378;-1.342;2023-01-24T10:41:12;102533.39;;;-2.99;35.39
63339;BME280;47485;51.378;-1.342;2023-01-24T10:43:40;102537.49;;;-5.29;37.58
63339;BME280;47485;51.378;-1.342;2023-01-24T10:46:19;102533.02;;;-2.93;36.68
63339;BME280;47485;51.378;-1.342;2023-01-24T10:48:53;102530.51;;;-3.35;36.31
63339;BME280;47485;51.378;-1.342;2023-01-24T10:51:23;102532.33;;;-0.92;33.69
63339;BME280;47485;51.378;-1.342;2023-01-24T10:53:51;102530.64;;;-1.77;33.88
63339;BME280;47485;51.378;-1.342;2023-01-24T10:56:22;102521.41;;;0.45;32.72
63339;BME280;47485;51.378;-1.342;2023-01-24T10:58:56;102527.53;;;-2.21;35.36
63339;BME280;47485;51.378;-1.342;2023-01-24T11:01:32;102518.34;;;1.68;31.67
63339;BME280;47485;51.378;-1.342;2023-01-24T11:03:59;102519.05;;;-0.75;33.83
63339;BME280;47485;51.378;-1.342;2023-01-24T11:06:39;102512.59;;;-1.83;32.99
63339;BME280;47485;51.378;-1.342;2023-01-24T11:09:10;102512.90;;;-1.82;33.08
63339;BME280;47485;51.378;-1.342;2023-01-24T11:11:42;102501.51;;;1.16;30.31
63339;BME280;47485;51.378;-1.342;2023-01-24T11:14:13;102503.17;;;-1.33;31.86
63339;BME280;47485;51.378;-1.342;2023-01-24T11:16:42;102499.25;;;-0.30;31.13
63339;BME280;47485;51.378;-1.342;2023-01-24T11:19:22;102492.66;;;1.18;30.15
63339;BME280;47485;51.378;-1.342;2023-01-24T11:21:52;102491.05;;;-0.50;30.33
63339;BME280;47485;51.378;-1.342;2023-01-24T11:24:20;102487.33;;;2.05;29.15
63339;BME280;47485;51.378;-1.342;2023-01-24T11:26:54;102486.87;;;1.21;29.73
63339;BME280;47485;51.378;-1.342;2023-01-24T11:29:21;102482.58;;;0.35;29.96
63339;BME280;47485;51.378;-1.342;2023-01-24T11:31:51;102482.64;;;-0.36;29.86
63339;BME280;47485;51.378;-1.342;2023-01-24T11:34:43;102476.36;;;1.73;28.67
63339;BME280;47485;51.378;-1.342;2023-01-24T11:37:21;102474.53;;;3.71;28.85
63339;BME280;47485;51.378;-1.342;2023-01-24T11:40:05;102479.43;;;0.94;29.63
63339;BME280;47485;51.378;-1.342;2023-01-24T11:42:45;102479.07;;;0.75;30.02
63339;BME280;47485;51.378;-1.342;2023-01-24T11:45:25;102476.27;;;1.56;28.80
63339;BME280;47485;51.378;-1.342;2023-01-24T11:48:06;102476.10;;;-0.11;30.25
63339;BME280;47485;51.378;-1.342;2023-01-24T11:50:40;102472.67;;;0.74;29.85
63339;BME280;47485;51.378;-1.342;2023-01-24T11:53:22;102473.98;;;1.45;29.84
63339;BME280;47485;51.378;-1.342;2023-01-24T11:56:01;102472.07;;;2.22;29.73
63339;BME280;47485;51.378;-1.342;2023-01-24T11:58:41;102471.14;;;1.42;30.50
63339;BME280;47485;51.378;-1.342;2023-01-24T12:01:16;102472.66;;;1.64;29.88
63339;BME280;47485;51.378;-1.342;2023-01-24T12:04:03;102469.88;;;-0.04;30.69
63339;BME280;47485;51.378;-1.342;2023-01-24T12:06:42;102465.80;;;1.76;29.89
63339;BME280;47485;51.378;-1.342;2023-01-24T12:09:17;102459.19;;;1.99;29.35
63339;BME280;47485;51.378;-1.342;2023-01-24T12:11:52;102455.30;;;1.99;29.71
63339;BME280;47485;51.378;-1.342;2023-01-24T12:14:40;102456.43;;;0.58;30.38
63339;BME280;47485;51.378;-1.342;2023-01-24T12:17:22;102450.39;;;3.12;28.83
63339;BME280;47485;51.378;-1.342;2023-01-24T12:20:10;102446.97;;;3.72;28.01
63339;BME280;47485;51.378;-1.342;2023-01-24T12:22:40;102440.59;;;2.38;29.39
63339;BME280;47485;51.378;-1.342;2023-01-24T12:25:16;102436.28;;;2.64;28.93
63339;BME280;47485;51.378;-1.342;2023-01-24T12:27:46;102433.61;;;1.65;28.84
63339;BME280;47485;51.378;-1.342;2023-01-24T12:30:17;102434.64;;;0.15;30.69
63339;BME280;47485;51.378;-1.342;2023-01-24T12:32:52;102431.87;;;1.39;29.19
63339;BME280;47485;51.378;-1.342;2023-01-24T12:35:24;102429.80;;;-0.47;31.82
63339;BME280;47485;51.378;-1.342;2023-01-24T12:37:57;102422.27;;;-1.24;31.21
63339;BME280;47485;51.378;-1.342;2023-01-24T12:40:38;102422.67;;;0.18;30.06
63339;BME280;47485;51.378;-1.342;2023-01-24T12:43:15;102420.31;;;0.50;30.53
63339;BME280;47485;51.378;-1.342;2023-01-24T12:45:51;102418.52;;;0.97;30.23
63339;BME280;47485;51.378;-1.342;2023-01-24T12:48:25;102419.46;;;0.76;31.33
63339;BME280;47485;51.378;-1.342;2023-01-24T12:50:57;102417.92;;;-0.83;31.67
63339;BME280;47485;51.378;-1.342;2023-01-24T12:53:31;102417.52;;;1.07;30.72
63339;BME280;47485;51.378;-1.342;2023-01-24T12:56:02;102418.64;;;0.51;30.37